Pleasant Mills, Indiana
Current Conditions -  °F | °C
As of 7:54 AM on Friday 28 Nov 2014 (Local Time) from KFWA Reporting Station
Overcast Overcast  
Wind Chill: 22°   Ceiling: 10000
Heat Index: 22°   Visibility: 10mi
Dew Point: 15°   Wind: 3mph
Humidity: 75%   Direction: 130°SE
Pressure: 30.35"   Gusts: NA
Location:  40.78°N, 84.84°W
Report Text: KFWA 281254Z 13003KT 10SM FEW020 OVC100 M06/M09 A3035 RMK AO2 SLP290 T10561094
Loading
Personal Weather Stations






























Interactive Weather Map New forecast layout! Learn more

10-Day Weather Forecast

Advertisements
Track Severe Weather on mobile